LRCT weather

Câmpia Turzii Air Base
Câmpia Turzii, Cluj, Romania

Public forecast

Using degrees Celsius for public forecast. Weather courtesy of forecast.io.

METAR (pilot weather report)

Retrieved 2019/08/21 19:00 UTC (52 minutes ago):

LRCT 211900Z 29006KT 9999 FEW085 23/17 Q1020 BLU BLU

TAF (pilot weather forecast)

Retrieved 2019/08/21 18:56 UTC (56 minutes ago):

TAF LRCT 211700Z 2118/2218 35005KT 9999 FEW100 BECMG 2209/2211 BKN120